createdAt,value
2022-07-25T00:01:36.684Z,5.78
2022-07-25T00:04:32.306Z,6.03
2022-07-25T00:07:19.470Z,6.50
2022-07-25T00:10:14.241Z,5.57
2022-07-25T00:13:01.333Z,5.65
2022-07-25T00:15:55.303Z,6.28
2022-07-25T00:18:42.425Z,5.43
2022-07-25T00:21:36.245Z,5.80
2022-07-25T00:24:30.239Z,5.68
2022-07-25T00:27:24.417Z,6.00
2022-07-25T00:30:18.292Z,5.68
2022-07-25T00:33:05.338Z,5.90
2022-07-25T00:35:59.394Z,5.40
2022-07-25T00:38:53.267Z,5.47
2022-07-25T00:41:46.363Z,6.00
2022-07-25T00:44:40.231Z,5.35
2022-07-25T00:47:33.451Z,6.03
2022-07-25T00:50:20.658Z,5.45
2022-07-25T00:53:14.237Z,5.05
2022-07-25T00:56:01.896Z,5.90
2022-07-25T00:58:55.602Z,5.28
2022-07-25T01:01:49.273Z,6.03
2022-07-25T01:04:43.417Z,6.07
2022-07-25T01:07:37.239Z,5.78
2022-07-25T01:10:31.226Z,5.50
2022-07-25T01:13:18.216Z,5.72
2022-07-25T01:16:15.342Z,6.38
2022-07-25T01:19:09.241Z,5.13
2022-07-25T01:21:57.411Z,6.00
2022-07-25T01:24:51.263Z,5.68
2022-07-25T01:27:38.910Z,5.60
2022-07-25T01:30:33.272Z,5.45
2022-07-25T01:33:28.226Z,5.93
2022-07-25T01:36:22.220Z,5.97
2022-07-25T01:39:29.443Z,5.25
2022-07-25T01:42:23.205Z,5.78
2022-07-25T01:45:11.128Z,5.68
2022-07-25T01:48:04.224Z,5.93
2022-07-25T01:50:58.252Z,5.20
2022-07-25T01:53:46.865Z,5.47
2022-07-25T01:56:41.376Z,5.53
2022-07-25T01:59:28.469Z,6.18
2022-07-25T02:02:22.408Z,5.47
2022-07-25T02:05:11.860Z,6.47
2022-07-25T02:08:05.223Z,5.43
2022-07-25T02:10:59.421Z,5.93
2022-07-25T02:13:53.223Z,5.72
2022-07-25T02:16:40.231Z,5.50
2022-07-25T02:19:34.604Z,5.38
2022-07-25T02:22:21.606Z,5.55
2022-07-25T02:25:17.298Z,5.95
2022-07-25T02:28:11.611Z,5.28
2022-07-25T02:30:58.619Z,5.35
2022-07-25T02:33:52.209Z,5.53
2022-07-25T02:36:46.255Z,5.53
2022-07-25T02:39:53.224Z,5.90
2022-07-25T02:42:47.395Z,5.10
2022-07-25T02:45:35.114Z,5.85
2022-07-25T02:48:29.274Z,6.15
2022-07-25T02:51:16.319Z,6.20
2022-07-25T02:57:04.203Z,6.75
2022-07-25T02:59:51.237Z,5.50
2022-07-25T03:05:38.204Z,5.50
2022-07-25T03:08:32.378Z,6.28
2022-07-25T03:11:19.471Z,5.82
2022-07-25T03:14:15.209Z,6.03
2022-07-25T03:17:02.263Z,6.10
2022-07-25T03:19:56.209Z,5.88
2022-07-25T03:22:43.239Z,6.75
2022-07-25T03:28:24.846Z,6.50
2022-07-25T03:31:18.293Z,6.03
2022-07-25T03:34:06.084Z,6.25
2022-07-25T03:37:00.381Z,6.28
2022-07-25T03:40:07.187Z,6.07
2022-07-25T03:43:00.229Z,6.13
2022-07-25T03:45:47.292Z,5.90
2022-07-25T03:48:41.425Z,6.55
2022-07-25T03:51:28.565Z,6.07
2022-07-25T03:54:22.282Z,5.88
2022-07-25T03:57:19.215Z,6.20
2022-07-25T04:00:15.355Z,6.50
2022-07-25T04:03:02.370Z,5.85
2022-07-25T04:08:49.230Z,6.15
2022-07-25T04:11:38.254Z,6.18
2022-07-25T04:14:32.198Z,6.32
2022-07-25T04:17:19.243Z,6.68
2022-07-25T04:20:15.204Z,6.32
2022-07-25T04:23:10.366Z,6.63
2022-07-25T04:25:58.087Z,6.90
2022-07-25T04:28:51.359Z,6.65
2022-07-25T04:31:38.393Z,6.28
2022-07-25T04:34:32.244Z,6.18
2022-07-25T04:37:19.472Z,6.55
2022-07-25T04:40:19.210Z,6.93
2022-07-25T04:43:13.312Z,6.10
2022-07-25T04:46:08.285Z,6.57
2022-07-25T04:49:02.241Z,5.75
2022-07-25T04:51:49.316Z,5.90
2022-07-25T04:57:36.189Z,5.95
2022-07-25T05:00:30.370Z,5.82
2022-07-25T05:03:17.398Z,5.22
2022-07-25T05:09:07.284Z,6.65
2022-07-25T05:12:01.216Z,7.03
2022-07-25T05:14:48.206Z,5.32
2022-07-25T05:20:30.088Z,6.15
2022-07-25T05:23:23.353Z,5.80
2022-07-25T05:26:10.350Z,5.50
2022-07-25T05:29:04.190Z,5.65
2022-07-25T05:31:57.225Z,5.85
2022-07-25T05:34:44.231Z,5.45
2022-07-25T05:37:38.169Z,5.30
2022-07-25T05:40:32.222Z,5.15
2022-07-25T05:43:26.160Z,5.32
2022-07-25T05:46:13.747Z,5.57
2022-07-25T05:49:07.282Z,4.97
2022-07-25T05:52:01.208Z,4.90
2022-07-25T05:54:55.185Z,5.00
2022-07-25T05:57:49.224Z,5.00
2022-07-25T06:00:36.519Z,5.07
2022-07-25T06:03:30.661Z,5.32
2022-07-25T06:06:24.199Z,5.07
2022-07-25T06:09:18.179Z,3.67
2022-07-25T06:12:05.892Z,5.25
2022-07-25T06:15:00.196Z,4.93
2022-07-25T06:17:54.310Z,4.70
2022-07-25T06:20:41.356Z,4.68
2022-07-25T06:23:35.358Z,4.90
2022-07-25T06:26:29.200Z,4.50
2022-07-25T06:29:16.534Z,4.75
2022-07-25T06:32:10.357Z,4.70
2022-07-25T06:35:04.188Z,4.65
2022-07-25T06:37:58.177Z,4.90
2022-07-25T06:41:05.183Z,5.32
2022-07-25T06:43:59.219Z,5.30
2022-07-25T06:46:46.527Z,5.28
2022-07-25T06:49:40.166Z,5.60
2022-07-25T06:52:34.174Z,5.05
2022-07-25T06:55:21.268Z,4.50
2022-07-25T06:58:15.205Z,4.95
2022-07-25T07:01:02.308Z,4.75
2022-07-25T07:03:56.190Z,4.60
2022-07-25T07:06:43.902Z,4.88
2022-07-25T07:09:37.183Z,5.05
2022-07-25T07:12:24.922Z,3.90
2022-07-25T07:15:19.154Z,4.70
2022-07-25T07:18:07.154Z,3.88
2022-07-25T07:21:01.175Z,4.22
2022-07-25T07:23:55.211Z,4.45
2022-07-25T07:26:50.193Z,3.90
2022-07-25T07:29:37.164Z,3.75
2022-07-25T07:32:31.255Z,3.78
2022-07-25T07:35:27.451Z,3.35
2022-07-25T07:38:15.200Z,3.75
2022-07-25T07:41:09.194Z,3.80
2022-07-25T07:44:03.178Z,3.58
2022-07-25T07:46:50.410Z,3.85
2022-07-25T07:49:49.805Z,3.70
2022-07-25T07:52:37.601Z,4.03
2022-07-25T07:55:50.197Z,4.25
2022-07-25T07:58:37.175Z,3.58
2022-07-25T08:01:31.245Z,3.85
2022-07-25T08:04:25.166Z,4.10
2022-07-25T08:07:12.132Z,4.00
2022-07-25T08:10:06.186Z,3.88
2022-07-25T08:12:53.681Z,4.10
2022-07-25T08:15:48.288Z,3.30
2022-07-25T08:18:35.530Z,3.42
2022-07-25T08:21:29.194Z,3.53
2022-07-25T08:24:16.151Z,4.32
2022-07-25T08:27:10.212Z,4.68
2022-07-25T08:29:58.766Z,4.75
2022-07-25T08:32:58.150Z,4.38
2022-07-25T08:35:54.338Z,4.18
2022-07-25T08:38:41.339Z,4.63
2022-07-25T08:41:41.323Z,4.85
2022-07-25T08:44:47.181Z,4.28
2022-07-25T08:47:42.188Z,4.45
2022-07-25T08:50:37.171Z,4.80
2022-07-25T08:53:34.149Z,4.90
2022-07-25T08:56:28.175Z,4.80
2022-07-25T08:59:15.244Z,4.40
2022-07-25T09:02:13.252Z,5.47
2022-07-25T09:05:07.219Z,5.30
2022-07-25T09:07:55.903Z,5.13
2022-07-25T09:10:55.197Z,4.40
2022-07-25T09:13:49.215Z,4.80
2022-07-25T09:16:40.441Z,4.18
2022-07-25T09:19:34.177Z,4.50
2022-07-25T09:22:28.166Z,4.88
2022-07-25T09:25:34.151Z,4.72
2022-07-25T09:28:27.217Z,5.00
2022-07-25T09:31:22.231Z,4.80
2022-07-25T09:34:17.173Z,3.85
2022-07-25T09:37:07.903Z,4.35
2022-07-25T09:40:01.166Z,4.95
2022-07-25T09:42:51.237Z,5.28
2022-07-25T09:45:55.376Z,5.18
2022-07-25T09:48:51.434Z,5.03
2022-07-25T09:51:39.347Z,5.60
2022-07-25T09:54:33.303Z,5.07
2022-07-25T09:57:21.904Z,3.83
2022-07-25T10:00:19.489Z,3.75
2022-07-25T10:03:33.354Z,3.97
2022-07-25T10:06:53.335Z,4.35
2022-07-25T10:09:49.005Z,4.32
2022-07-25T10:12:45.177Z,4.32
2022-07-25T10:15:50.608Z,4.55
2022-07-25T10:19:01.200Z,4.43
2022-07-25T10:22:02.163Z,4.47
2022-07-25T10:24:49.836Z,4.60
2022-07-25T10:27:50.208Z,4.85
2022-07-25T10:30:40.094Z,5.30
2022-07-25T10:33:34.164Z,3.80
2022-07-25T10:36:29.173Z,5.10
2022-07-25T10:39:26.248Z,5.10
2022-07-25T10:45:18.006Z,4.25
2022-07-25T10:48:26.358Z,4.32
2022-07-25T10:51:14.461Z,3.63
2022-07-25T10:54:22.146Z,4.93
2022-07-25T10:57:22.160Z,4.38
2022-07-25T11:00:09.686Z,4.32
2022-07-25T11:03:04.220Z,4.05
2022-07-25T11:05:54.638Z,4.55
2022-07-25T11:08:51.147Z,4.65
2022-07-25T11:11:41.034Z,4.53
2022-07-25T11:14:44.307Z,4.22
2022-07-25T11:17:31.451Z,4.60
2022-07-25T11:20:26.183Z,5.05
2022-07-25T11:23:29.169Z,4.15
2022-07-25T11:26:23.156Z,4.40
2022-07-25T11:29:21.798Z,4.90
2022-07-25T11:32:17.245Z,4.72
2022-07-25T11:35:05.565Z,4.80
2022-07-25T11:38:00.148Z,3.72
2022-07-25T11:40:53.302Z,4.43
2022-07-25T11:43:56.176Z,4.22
2022-07-25T11:46:47.217Z,3.50
2022-07-25T11:49:52.183Z,4.43
2022-07-25T11:52:39.228Z,4.68
2022-07-25T11:55:37.157Z,5.32
2022-07-25T11:58:31.191Z,3.53
2022-07-25T12:01:18.208Z,4.50
2022-07-25T12:04:21.160Z,4.97
2022-07-25T12:07:08.143Z,3.80
2022-07-25T12:10:04.218Z,4.80
2022-07-25T12:12:54.810Z,3.80
2022-07-25T12:15:49.200Z,4.35
2022-07-25T12:18:38.197Z,4.75
2022-07-25T12:21:32.199Z,3.67
2022-07-25T12:24:19.378Z,3.78
2022-07-25T12:27:13.389Z,3.80
2022-07-25T12:30:00.352Z,3.45
2022-07-25T12:32:54.245Z,4.45
2022-07-25T12:35:42.623Z,4.95
2022-07-25T12:38:36.210Z,4.38
2022-07-25T12:41:36.166Z,3.92
2022-07-25T12:44:23.149Z,3.08
2022-07-25T12:47:17.353Z,4.53
2022-07-25T12:50:06.188Z,4.28
2022-07-25T12:53:00.145Z,4.10
2022-07-25T12:55:47.126Z,4.40
2022-07-25T12:58:41.163Z,3.95
2022-07-25T13:01:28.183Z,4.57
2022-07-25T13:04:22.312Z,3.55
2022-07-25T13:07:09.324Z,4.20
2022-07-25T13:10:03.204Z,3.80
2022-07-25T13:12:50.316Z,3.67
2022-07-25T13:15:44.145Z,3.40
2022-07-25T13:18:38.159Z,3.95
2022-07-25T13:21:25.979Z,3.53
2022-07-25T13:24:20.137Z,3.65
2022-07-25T13:27:14.550Z,3.60
2022-07-25T13:30:01.718Z,4.03
2022-07-25T13:32:55.158Z,3.25
2022-07-25T13:35:42.240Z,3.35
2022-07-25T13:38:36.169Z,3.55
2022-07-25T13:41:43.168Z,3.72
2022-07-25T13:47:26.963Z,3.92
2022-07-25T13:50:24.283Z,3.85
2022-07-25T13:53:11.395Z,3.53
2022-07-25T13:56:06.232Z,3.30
2022-07-25T13:58:53.312Z,3.60
2022-07-25T14:01:47.198Z,3.97
2022-07-25T14:04:34.232Z,3.95
2022-07-25T14:07:28.168Z,2.75
2022-07-25T14:10:15.503Z,3.47
2022-07-25T14:13:09.231Z,4.13
2022-07-25T14:15:56.457Z,4.38
2022-07-25T14:18:50.305Z,3.90
2022-07-25T14:21:38.043Z,3.30
2022-07-25T14:24:31.143Z,3.75
2022-07-25T14:27:25.264Z,4.00
2022-07-25T14:30:19.204Z,3.70
2022-07-25T14:33:06.263Z,4.88
2022-07-25T14:36:00.155Z,4.28
2022-07-25T14:38:55.196Z,4.45
2022-07-25T14:41:48.740Z,3.95
2022-07-25T14:44:42.160Z,3.45
2022-07-25T14:47:29.405Z,4.45
2022-07-25T14:50:23.143Z,3.42
2022-07-25T14:53:10.879Z,4.20
2022-07-25T14:56:05.174Z,4.13
2022-07-25T14:58:52.331Z,3.97
2022-07-25T15:01:46.188Z,3.22
2022-07-25T15:04:33.450Z,3.53
2022-07-25T15:07:27.149Z,4.30
2022-07-25T15:10:14.713Z,4.43
2022-07-25T15:13:30.075Z,4.50
2022-07-25T15:16:17.035Z,4.25
2022-07-25T15:19:17.211Z,4.40
2022-07-25T15:22:11.156Z,4.70
2022-07-25T15:28:19.158Z,4.60
2022-07-25T15:31:13.218Z,4.35
2022-07-25T15:34:07.285Z,4.57
2022-07-25T15:36:54.556Z,4.60
2022-07-25T15:39:48.158Z,4.55
2022-07-25T15:42:49.173Z,4.18
2022-07-25T15:45:48.188Z,4.28
2022-07-25T15:48:35.186Z,4.32
2022-07-25T15:51:29.157Z,4.10
2022-07-25T15:54:16.362Z,3.90
2022-07-25T15:57:10.188Z,4.85
2022-07-25T15:59:57.255Z,4.55
2022-07-25T16:02:52.160Z,4.05
2022-07-25T16:05:47.167Z,4.07
2022-07-25T16:08:42.178Z,4.20
2022-07-25T16:11:36.183Z,4.07
2022-07-25T16:14:23.169Z,4.57
2022-07-25T16:17:17.191Z,4.50
2022-07-25T16:20:13.202Z,3.92
2022-07-25T16:23:07.191Z,4.80
2022-07-25T16:26:01.165Z,4.30
2022-07-25T16:28:57.749Z,3.90
2022-07-25T16:31:45.056Z,4.32
2022-07-25T16:34:39.145Z,3.95
2022-07-25T16:37:33.209Z,3.45
2022-07-25T16:40:30.711Z,3.47
2022-07-25T16:43:24.858Z,4.35
2022-07-25T16:46:18.211Z,4.15
2022-07-25T16:49:12.481Z,3.92
2022-07-25T16:51:59.742Z,4.38
2022-07-25T16:54:53.162Z,4.13
2022-07-25T16:57:40.343Z,4.10
2022-07-25T17:00:34.156Z,4.35
2022-07-25T17:03:28.148Z,4.68
2022-07-25T17:06:23.921Z,4.10
2022-07-25T17:09:18.159Z,4.00
2022-07-25T17:12:12.150Z,4.00
2022-07-25T17:15:05.169Z,3.72
2022-07-25T17:17:52.237Z,3.55
2022-07-25T17:20:46.203Z,4.90
2022-07-25T17:23:33.867Z,4.68
2022-07-25T17:26:27.399Z,3.78
2022-07-25T17:29:21.167Z,4.38
2022-07-25T17:32:15.154Z,5.35
2022-07-25T17:35:02.157Z,4.03
2022-07-25T17:37:56.152Z,4.50
2022-07-25T17:40:50.218Z,4.78
2022-07-25T17:43:44.354Z,3.88
2022-07-25T17:46:39.268Z,5.43
2022-07-25T17:49:33.323Z,4.57
2022-07-25T17:52:20.299Z,4.95
2022-07-25T17:55:14.230Z,4.13
2022-07-25T17:58:02.044Z,4.70
2022-07-25T18:01:00.965Z,6.50
2022-07-25T18:03:57.134Z,5.72
2022-07-25T18:06:44.860Z,4.93
2022-07-25T18:09:38.155Z,6.22
2022-07-25T18:12:29.463Z,6.05
2022-07-25T18:15:24.144Z,5.82
2022-07-25T18:18:12.836Z,5.82
2022-07-25T18:21:09.160Z,4.80
2022-07-25T18:24:03.228Z,5.28
2022-07-25T18:26:50.273Z,6.55
2022-07-25T18:29:45.217Z,6.18
2022-07-25T18:32:32.591Z,5.90
2022-07-25T18:35:26.164Z,6.30
2022-07-25T18:38:13.783Z,5.65
2022-07-25T18:41:27.970Z,6.05
2022-07-25T18:44:27.161Z,5.53
2022-07-25T18:47:21.156Z,5.95
2022-07-25T18:50:08.923Z,5.63
2022-07-25T18:53:04.158Z,5.85
2022-07-25T18:55:51.278Z,6.88
2022-07-25T18:58:45.201Z,5.93
2022-07-25T19:01:32.269Z,6.28
2022-07-25T19:04:26.151Z,6.60
2022-07-25T19:07:13.269Z,6.40
2022-07-25T19:10:07.144Z,6.50
2022-07-25T19:12:54.128Z,6.53
2022-07-25T19:15:48.233Z,7.45
2022-07-25T19:18:44.176Z,6.57
2022-07-25T19:21:31.215Z,6.75
2022-07-25T19:24:25.142Z,6.88
2022-07-25T19:27:12.489Z,6.35
2022-07-25T19:30:06.125Z,7.95
2022-07-25T19:32:53.203Z,8.05
2022-07-25T19:35:47.144Z,7.68
2022-07-25T19:38:34.255Z,8.07
2022-07-25T19:41:28.154Z,7.03
2022-07-25T19:44:21.289Z,7.15
2022-07-25T19:47:15.178Z,7.30
2022-07-25T19:50:02.212Z,7.28
2022-07-25T19:52:56.144Z,6.63
2022-07-25T19:55:43.322Z,6.80
2022-07-25T19:58:39.128Z,6.63
2022-07-25T20:01:34.265Z,7.20
2022-07-25T20:04:28.295Z,7.35
2022-07-25T20:07:22.445Z,7.85
2022-07-25T20:10:17.983Z,7.28
2022-07-25T20:13:12.168Z,8.10
2022-07-25T20:15:59.349Z,8.00
2022-07-25T20:18:53.252Z,8.52
2022-07-25T20:21:40.890Z,9.10
2022-07-25T20:24:34.188Z,8.07
2022-07-25T20:27:28.160Z,8.73
2022-07-25T20:30:15.773Z,8.20
2022-07-25T20:33:09.922Z,7.60
2022-07-25T20:36:04.166Z,8.10
2022-07-25T20:38:58.155Z,7.28
2022-07-25T20:41:59.138Z,8.57
2022-07-25T20:44:52.298Z,8.60
2022-07-25T20:47:46.196Z,8.07
2022-07-25T20:50:40.153Z,8.35
2022-07-25T20:53:27.364Z,8.80
2022-07-25T20:56:21.210Z,9.35
2022-07-25T20:59:08.831Z,8.75
2022-07-25T21:02:02.221Z,8.80
2022-07-25T21:04:56.211Z,9.65
2022-07-25T21:07:50.150Z,8.80
2022-07-25T21:10:45.138Z,8.88
2022-07-25T21:13:39.179Z,8.45
2022-07-25T21:16:27.355Z,8.50
2022-07-25T21:19:35.172Z,8.65
2022-07-25T21:22:29.328Z,15.80
2022-07-25T21:25:23.161Z,11.90
2022-07-25T21:28:10.222Z,9.43
2022-07-25T21:31:04.148Z,9.75
2022-07-25T21:33:58.131Z,8.30
2022-07-25T21:36:45.121Z,8.52
2022-07-25T21:39:39.137Z,7.95
2022-07-25T21:42:33.263Z,7.82
2022-07-25T21:45:33.144Z,8.52
2022-07-25T21:48:40.471Z,8.25
2022-07-25T21:51:40.917Z,7.45
2022-07-25T21:54:28.289Z,8.30
2022-07-25T21:57:23.203Z,7.43
2022-07-25T22:00:19.136Z,7.75
2022-07-25T22:03:13.143Z,8.45
2022-07-25T22:06:07.318Z,8.60
2022-07-25T22:09:01.158Z,8.55
2022-07-25T22:11:48.241Z,8.23
2022-07-25T22:14:42.322Z,8.10
2022-07-25T22:17:48.197Z,8.40
2022-07-25T22:20:43.142Z,8.10
2022-07-25T22:23:37.201Z,8.52
2022-07-25T22:26:24.635Z,8.20
2022-07-25T22:29:18.332Z,7.97
2022-07-25T22:32:05.819Z,8.10
2022-07-25T22:34:59.163Z,7.35
2022-07-25T22:37:46.364Z,7.57
2022-07-25T22:40:40.143Z,6.93
2022-07-25T22:43:59.024Z,7.00
2022-07-25T22:46:46.721Z,6.70
2022-07-25T22:49:40.125Z,6.63
2022-07-25T22:52:33.110Z,7.07
2022-07-25T22:55:20.382Z,6.88
2022-07-25T22:58:14.125Z,6.57
2022-07-25T23:01:08.137Z,6.90
2022-07-25T23:03:56.394Z,6.30
2022-07-25T23:06:50.146Z,6.70
2022-07-25T23:09:37.120Z,6.55
2022-07-25T23:12:30.117Z,8.15
2022-07-25T23:15:17.166Z,11.98
2022-07-25T23:18:11.117Z,13.23
2022-07-25T23:20:58.243Z,9.10
2022-07-25T23:23:52.124Z,10.02
2022-07-25T23:26:39.265Z,10.52
2022-07-25T23:29:33.134Z,9.68
2022-07-25T23:32:20.178Z,8.88
2022-07-25T23:38:08.141Z,8.30
2022-07-25T23:41:02.119Z,9.88
2022-07-25T23:43:59.352Z,10.95
2022-07-25T23:46:53.178Z,12.50
2022-07-25T23:49:40.779Z,13.32
2022-07-25T23:52:34.139Z,11.55
2022-07-25T23:55:28.134Z,12.98
2022-07-25T23:58:22.147Z,11.20
